createdAt,value
2022-11-25T00:00:34.092Z,9.21
2022-11-25T00:03:01.018Z,9.30
2022-11-25T00:05:28.681Z,9.36
2022-11-25T00:07:55.379Z,9.62
2022-11-25T00:10:22.192Z,8.63
2022-11-25T00:12:48.877Z,9.28
2022-11-25T00:15:15.681Z,8.74
2022-11-25T00:17:42.325Z,9.03
2022-11-25T00:20:09.192Z,9.31
2022-11-25T00:22:35.846Z,9.13
2022-11-25T00:25:02.601Z,9.52
2022-11-25T00:27:29.362Z,9.60
2022-11-25T00:29:56.076Z,9.55
2022-11-25T00:32:22.842Z,9.57
2022-11-25T00:34:49.663Z,8.78
2022-11-25T00:37:16.305Z,8.73
2022-11-25T00:39:43.003Z,9.12
2022-11-25T00:42:29.344Z,9.05
2022-11-25T00:44:57.106Z,9.35
2022-11-25T00:47:23.816Z,9.38
2022-11-25T00:49:52.325Z,9.45
2022-11-25T00:52:26.335Z,9.59
2022-11-25T00:54:53.550Z,9.67
2022-11-25T00:57:21.798Z,9.57
2022-11-25T00:59:48.485Z,9.49
2022-11-25T01:02:16.067Z,9.07
2022-11-25T01:04:43.211Z,9.21
2022-11-25T01:07:09.981Z,9.63
2022-11-25T01:09:37.705Z,9.47
2022-11-25T01:12:05.162Z,9.61
2022-11-25T01:14:32.484Z,9.61
2022-11-25T01:16:59.266Z,9.51
2022-11-25T01:19:26.141Z,9.54
2022-11-25T01:21:52.797Z,9.59
2022-11-25T01:24:19.648Z,9.51
2022-11-25T01:26:46.325Z,9.54
2022-11-25T01:29:15.194Z,9.59
2022-11-25T01:31:43.213Z,9.58
2022-11-25T01:34:13.227Z,9.53
2022-11-25T01:36:40.090Z,9.52
2022-11-25T01:39:06.896Z,9.47
2022-11-25T01:41:35.059Z,9.41
2022-11-25T01:44:22.197Z,9.41
2022-11-25T01:47:13.579Z,9.24
2022-11-25T01:49:50.468Z,9.19
2022-11-25T01:52:17.549Z,8.96
2022-11-25T01:54:56.030Z,8.85
2022-11-25T01:57:28.636Z,8.92
2022-11-25T01:59:58.227Z,8.73
2022-11-25T02:02:25.265Z,8.89
2022-11-25T02:04:52.582Z,7.73
2022-11-25T02:07:26.287Z,8.36
2022-11-25T02:09:54.346Z,8.56
2022-11-25T02:12:22.414Z,8.31
2022-11-25T02:14:50.996Z,8.57
2022-11-25T02:17:17.941Z,8.62
2022-11-25T02:19:59.533Z,8.55
2022-11-25T02:22:32.342Z,8.50
2022-11-25T02:25:03.753Z,8.40
2022-11-25T02:27:30.502Z,8.56
2022-11-25T02:29:57.359Z,7.68
2022-11-25T02:32:24.149Z,7.78
2022-11-25T02:34:50.902Z,7.14
2022-11-25T02:37:19.144Z,7.67
2022-11-25T02:39:47.912Z,8.07
2022-11-25T02:42:15.431Z,8.20
2022-11-25T02:44:42.121Z,8.21
2022-11-25T02:47:08.862Z,8.04
2022-11-25T02:49:35.604Z,7.99
2022-11-25T02:52:02.841Z,8.11
2022-11-25T02:54:29.697Z,8.08
2022-11-25T02:56:56.421Z,7.97
2022-11-25T02:59:23.161Z,8.04
2022-11-25T03:01:49.894Z,7.95
2022-11-25T03:04:16.909Z,7.87
2022-11-25T03:06:43.585Z,7.99
2022-11-25T03:09:10.393Z,8.04
2022-11-25T03:12:15.355Z,8.06
2022-11-25T03:14:42.021Z,8.20
2022-11-25T03:17:08.912Z,8.08
2022-11-25T03:19:40.163Z,8.15
2022-11-25T03:22:06.833Z,8.04
2022-11-25T03:24:34.046Z,7.97
2022-11-25T03:27:01.069Z,8.06
2022-11-25T03:29:27.750Z,8.17
2022-11-25T03:31:54.556Z,7.95
2022-11-25T03:34:21.318Z,7.66
2022-11-25T03:36:48.154Z,7.46
2022-11-25T03:39:15.013Z,7.61
2022-11-25T03:41:41.722Z,7.45
2022-11-25T03:44:08.466Z,7.56
2022-11-25T03:46:35.260Z,7.71
2022-11-25T03:49:01.993Z,7.55
2022-11-25T03:51:28.768Z,7.61
2022-11-25T03:53:55.498Z,7.44
2022-11-25T03:56:22.202Z,7.42
2022-11-25T03:58:48.982Z,7.57
2022-11-25T04:01:15.707Z,7.26
2022-11-25T04:03:42.462Z,7.36
2022-11-25T04:06:09.139Z,7.44
2022-11-25T04:08:35.939Z,6.90
2022-11-25T04:11:02.761Z,7.09
2022-11-25T04:13:29.620Z,7.34
2022-11-25T04:15:56.466Z,7.15
2022-11-25T04:18:23.157Z,6.93
2022-11-25T04:20:50.004Z,6.91
2022-11-25T04:23:16.765Z,6.75
2022-11-25T04:25:43.630Z,7.04
2022-11-25T04:28:10.531Z,6.88
2022-11-25T04:30:37.678Z,6.85
2022-11-25T04:33:04.470Z,7.02
2022-11-25T04:35:31.127Z,6.97
2022-11-25T04:37:57.818Z,6.65
2022-11-25T04:40:25.117Z,6.73
2022-11-25T04:42:56.105Z,6.85
2022-11-25T04:45:27.011Z,6.85
2022-11-25T04:47:53.858Z,6.68
2022-11-25T04:50:33.283Z,6.77
2022-11-25T04:53:00.136Z,6.51
2022-11-25T04:55:26.865Z,6.40
2022-11-25T04:57:53.577Z,6.34
2022-11-25T05:00:20.657Z,6.17
2022-11-25T05:02:47.467Z,6.25
2022-11-25T05:05:14.245Z,6.36
2022-11-25T05:07:41.327Z,6.27
2022-11-25T05:10:08.700Z,6.14
2022-11-25T05:12:35.828Z,6.18
2022-11-25T05:15:02.566Z,6.25
2022-11-25T05:17:30.509Z,6.07
2022-11-25T05:19:57.279Z,6.18
2022-11-25T05:22:25.163Z,6.42
2022-11-25T05:24:52.005Z,5.94
2022-11-25T05:27:18.753Z,5.86
2022-11-25T05:29:46.786Z,5.84
2022-11-25T05:32:16.071Z,6.01
2022-11-25T05:34:43.096Z,5.86
2022-11-25T05:37:10.493Z,5.52
2022-11-25T05:39:37.309Z,5.92
2022-11-25T05:42:04.092Z,5.84
2022-11-25T05:44:30.837Z,6.05
2022-11-25T05:46:57.629Z,6.06
2022-11-25T05:49:24.938Z,5.96
2022-11-25T05:51:51.987Z,6.04
2022-11-25T05:54:18.662Z,5.57
2022-11-25T05:56:45.382Z,5.92
2022-11-25T05:59:12.024Z,5.81
2022-11-25T06:01:38.900Z,5.82
2022-11-25T06:04:05.705Z,5.79
2022-11-25T06:06:33.877Z,5.89
2022-11-25T06:09:01.127Z,5.68
2022-11-25T06:11:28.068Z,5.63
2022-11-25T06:13:56.699Z,5.83
2022-11-25T06:16:23.640Z,5.57
2022-11-25T06:18:50.474Z,5.73
2022-11-25T06:21:17.983Z,5.61
2022-11-25T06:23:47.498Z,5.69
2022-11-25T06:26:15.924Z,5.67
2022-11-25T06:28:42.742Z,5.65
2022-11-25T06:31:14.713Z,5.72
2022-11-25T06:33:41.944Z,5.79
2022-11-25T06:36:13.935Z,5.92
2022-11-25T06:38:40.626Z,5.95
2022-11-25T06:41:07.346Z,6.01
2022-11-25T06:43:33.986Z,5.91
2022-11-25T06:46:05.270Z,5.69
2022-11-25T06:48:32.203Z,5.74
2022-11-25T06:50:59.697Z,5.94
2022-11-25T06:53:27.132Z,6.34
2022-11-25T06:56:02.771Z,6.56
2022-11-25T06:58:35.774Z,7.24
2022-11-25T07:01:07.674Z,8.23
2022-11-25T07:03:36.316Z,8.99
2022-11-25T07:06:03.734Z,9.60
2022-11-25T07:08:34.114Z,9.77
2022-11-25T07:11:06.611Z,9.79
2022-11-25T07:13:33.870Z,10.34
2022-11-25T07:16:01.574Z,10.88
2022-11-25T07:18:30.049Z,11.33
2022-11-25T07:20:56.706Z,11.86
2022-11-25T07:23:23.398Z,12.21
2022-11-25T07:25:50.170Z,12.47
2022-11-25T07:28:16.886Z,12.90
2022-11-25T07:33:30.770Z,13.22
2022-11-25T07:36:01.249Z,13.18
2022-11-25T07:38:28.113Z,13.44
2022-11-25T07:40:54.828Z,13.82
2022-11-25T07:43:23.692Z,13.69
2022-11-25T07:45:50.608Z,13.75
2022-11-25T07:48:17.445Z,14.00
2022-11-25T07:50:44.122Z,13.79
2022-11-25T07:53:10.740Z,14.24
2022-11-25T07:55:37.995Z,14.30
2022-11-25T07:58:05.082Z,14.89
2022-11-25T08:00:32.302Z,15.27
2022-11-25T08:02:59.518Z,15.38
2022-11-25T08:05:26.229Z,15.63
2022-11-25T08:07:52.947Z,15.64
2022-11-25T08:10:19.775Z,15.48
2022-11-25T08:12:46.688Z,15.27
2022-11-25T08:15:13.460Z,15.35
2022-11-25T08:17:40.818Z,15.16
2022-11-25T08:20:07.855Z,15.02
2022-11-25T08:22:34.659Z,14.91
2022-11-25T08:25:01.404Z,14.92
2022-11-25T08:27:28.212Z,14.85
2022-11-25T08:29:55.179Z,15.18
2022-11-25T08:32:21.939Z,15.18
2022-11-25T08:34:48.658Z,15.39
2022-11-25T08:37:15.414Z,15.59
2022-11-25T08:39:52.530Z,15.83
2022-11-25T08:42:20.153Z,15.90
2022-11-25T08:44:51.193Z,16.10
2022-11-25T08:47:18.013Z,16.35
2022-11-25T08:49:45.879Z,16.67
2022-11-25T08:52:12.772Z,16.75
2022-11-25T08:54:39.610Z,16.62
2022-11-25T08:57:06.521Z,16.64
2022-11-25T08:59:33.724Z,16.66
2022-11-25T09:02:01.346Z,16.74
2022-11-25T09:04:37.869Z,17.28
2022-11-25T09:07:04.942Z,17.26
2022-11-25T09:09:31.733Z,16.99
2022-11-25T09:11:58.740Z,16.58
2022-11-25T09:14:25.734Z,16.44
2022-11-25T09:16:52.868Z,16.64
2022-11-25T09:19:20.627Z,16.19
2022-11-25T09:21:47.394Z,16.48
2022-11-25T09:24:14.162Z,16.49
2022-11-25T09:26:42.535Z,16.51
2022-11-25T09:29:11.238Z,17.17
2022-11-25T09:31:38.231Z,16.65
2022-11-25T09:34:05.118Z,17.03
2022-11-25T09:36:31.838Z,17.40
2022-11-25T09:38:58.790Z,17.14
2022-11-25T09:41:45.630Z,17.49
2022-11-25T09:44:43.282Z,17.58
2022-11-25T09:47:33.310Z,18.11
2022-11-25T09:50:10.273Z,17.84
2022-11-25T09:52:43.055Z,17.93
2022-11-25T09:55:17.022Z,18.15
2022-11-25T09:57:59.410Z,18.31
2022-11-25T10:00:30.989Z,18.50
2022-11-25T10:03:13.332Z,18.57
2022-11-25T10:05:47.784Z,18.87
2022-11-25T10:08:25.659Z,19.18
2022-11-25T10:10:55.885Z,18.81
2022-11-25T10:13:28.257Z,18.53
2022-11-25T10:15:58.526Z,18.75
2022-11-25T10:18:30.872Z,18.37
2022-11-25T10:20:57.952Z,18.24
2022-11-25T10:23:28.609Z,18.77
2022-11-25T10:26:01.543Z,18.82
2022-11-25T10:28:33.090Z,18.87
2022-11-25T10:31:15.098Z,18.82
2022-11-25T10:33:49.293Z,19.33
2022-11-25T10:36:21.564Z,19.74
2022-11-25T10:38:54.605Z,19.32
2022-11-25T10:41:24.140Z,19.63
2022-11-25T10:43:51.001Z,19.68
2022-11-25T10:47:13.431Z,20.09
2022-11-25T10:49:50.055Z,20.20
2022-11-25T10:52:20.979Z,20.01
2022-11-25T10:54:57.832Z,20.38
2022-11-25T10:57:28.202Z,20.34
2022-11-25T10:59:56.872Z,20.12
2022-11-25T11:02:31.068Z,20.38
2022-11-25T11:05:03.527Z,20.69
2022-11-25T11:07:33.655Z,20.79
2022-11-25T11:10:13.981Z,20.46
2022-11-25T11:12:59.599Z,20.59
2022-11-25T11:15:30.808Z,20.27
2022-11-25T11:17:59.197Z,20.61
2022-11-25T11:20:27.642Z,20.39
2022-11-25T11:23:09.624Z,20.50
2022-11-25T11:25:37.723Z,20.46
2022-11-25T11:28:24.211Z,19.86
2022-11-25T11:30:57.483Z,20.09
2022-11-25T11:33:34.262Z,20.14
2022-11-25T11:36:22.648Z,20.11
2022-11-25T11:39:01.550Z,20.64
2022-11-25T11:41:36.224Z,19.55
2022-11-25T11:44:03.046Z,18.00
2022-11-25T11:46:40.302Z,17.41
2022-11-25T11:49:18.897Z,18.06
2022-11-25T11:51:51.531Z,18.56
2022-11-25T11:54:28.141Z,18.92
2022-11-25T11:57:04.163Z,19.23
2022-11-25T11:59:52.829Z,19.32
2022-11-25T12:02:22.347Z,19.58
2022-11-25T12:05:08.414Z,19.91
2022-11-25T12:07:35.253Z,20.17
2022-11-25T12:10:17.353Z,20.32
2022-11-25T12:13:13.825Z,20.31
2022-11-25T12:16:01.059Z,20.41
2022-11-25T12:18:46.516Z,19.71
2022-11-25T12:21:36.327Z,18.91
2022-11-25T12:24:14.030Z,19.45
2022-11-25T12:26:44.013Z,19.98
2022-11-25T12:29:14.281Z,20.28
2022-11-25T12:31:45.918Z,20.37
2022-11-25T12:34:17.694Z,20.11
2022-11-25T12:36:46.299Z,20.41
2022-11-25T12:39:31.419Z,20.26
2022-11-25T12:42:01.603Z,20.13
2022-11-25T12:44:31.668Z,20.03
2022-11-25T12:46:58.970Z,20.46
2022-11-25T12:49:27.235Z,20.35
2022-11-25T12:52:09.727Z,20.36
2022-11-25T12:54:55.433Z,19.65
2022-11-25T12:57:45.853Z,20.22
2022-11-25T13:00:40.548Z,19.53
2022-11-25T13:03:31.838Z,20.07
2022-11-25T13:06:04.543Z,19.99
2022-11-25T13:08:45.915Z,19.44
2022-11-25T13:11:27.462Z,18.82
2022-11-25T13:13:54.687Z,19.31
2022-11-25T13:16:22.462Z,18.62
2022-11-25T13:18:50.024Z,18.75
2022-11-25T13:21:18.414Z,19.02
2022-11-25T13:23:49.463Z,19.04
2022-11-25T13:26:28.840Z,19.22
2022-11-25T13:28:56.044Z,18.99
2022-11-25T13:31:31.626Z,19.10
2022-11-25T13:33:58.396Z,19.36
2022-11-25T13:36:26.405Z,19.45
2022-11-25T13:38:53.233Z,19.52
2022-11-25T13:41:19.953Z,19.61
2022-11-25T13:44:01.748Z,19.76
2022-11-25T13:46:35.133Z,19.57
2022-11-25T13:49:02.343Z,19.59
2022-11-25T13:51:29.276Z,19.28
2022-11-25T13:53:55.942Z,19.23
2022-11-25T13:56:26.605Z,19.21
2022-11-25T13:59:11.779Z,18.80
2022-11-25T14:01:40.343Z,18.76
2022-11-25T14:04:12.459Z,18.79
2022-11-25T14:06:51.402Z,18.54
2022-11-25T14:09:53.773Z,18.56
2022-11-25T14:12:38.823Z,18.21
2022-11-25T14:15:15.654Z,18.01
2022-11-25T14:17:42.298Z,18.10
2022-11-25T14:20:21.113Z,18.08
2022-11-25T14:23:09.431Z,18.06
2022-11-25T14:26:16.329Z,18.02
2022-11-25T14:29:06.593Z,17.82
2022-11-25T14:31:38.343Z,17.49
2022-11-25T14:34:10.961Z,17.17
2022-11-25T14:36:43.246Z,17.27
2022-11-25T14:39:14.441Z,17.30
2022-11-25T14:42:13.811Z,17.05
2022-11-25T14:44:55.996Z,16.93
2022-11-25T14:47:24.197Z,16.50
2022-11-25T14:50:05.738Z,16.04
2022-11-25T14:52:42.785Z,15.50
2022-11-25T14:55:10.278Z,15.57
2022-11-25T14:57:38.729Z,15.39
2022-11-25T15:00:10.360Z,15.40
2022-11-25T15:02:40.362Z,15.28
2022-11-25T15:05:21.180Z,15.15
2022-11-25T15:07:59.557Z,15.14
2022-11-25T15:10:32.443Z,14.85
2022-11-25T15:13:00.575Z,14.52
2022-11-25T15:15:27.958Z,14.59
2022-11-25T15:17:55.513Z,14.58
2022-11-25T15:20:25.971Z,14.30
2022-11-25T15:22:52.975Z,14.44
2022-11-25T15:25:20.092Z,14.41
2022-11-25T15:27:49.233Z,14.18
2022-11-25T15:30:20.435Z,14.08
2022-11-25T15:32:47.444Z,13.63
2022-11-25T15:35:19.828Z,13.44
2022-11-25T15:37:46.521Z,13.24
2022-11-25T15:40:32.124Z,13.21
2022-11-25T15:42:59.885Z,13.12
2022-11-25T15:45:27.792Z,13.06
2022-11-25T15:47:56.420Z,12.59
2022-11-25T15:50:24.647Z,12.62
2022-11-25T15:52:56.142Z,12.69
2022-11-25T15:55:33.641Z,12.59
2022-11-25T15:58:06.063Z,12.50
2022-11-25T16:00:32.966Z,12.45
2022-11-25T16:03:00.937Z,12.37
2022-11-25T16:05:29.418Z,12.34
2022-11-25T16:07:56.064Z,12.34
2022-11-25T16:10:27.734Z,12.36
2022-11-25T16:13:15.718Z,12.12
2022-11-25T16:15:49.574Z,11.89
2022-11-25T16:18:39.286Z,11.76
2022-11-25T16:21:24.152Z,11.78
2022-11-25T16:23:52.649Z,11.46
2022-11-25T16:26:27.992Z,11.23
2022-11-25T16:28:56.337Z,10.71
2022-11-25T16:31:23.869Z,10.81
2022-11-25T16:33:53.261Z,10.62
2022-11-25T16:36:19.926Z,10.53
2022-11-25T16:38:51.435Z,10.64
2022-11-25T16:41:21.033Z,10.94
2022-11-25T16:43:47.728Z,10.81
2022-11-25T16:46:16.122Z,10.32
2022-11-25T16:48:42.831Z,10.46
2022-11-25T16:51:14.930Z,10.36
2022-11-25T16:53:41.741Z,10.19
2022-11-25T16:56:12.004Z,9.98
2022-11-25T16:58:38.723Z,10.09
2022-11-25T17:01:05.869Z,10.26
2022-11-25T17:03:32.746Z,10.32
2022-11-25T17:06:00.266Z,10.16
2022-11-25T17:08:27.063Z,10.04
2022-11-25T17:10:57.548Z,9.79
2022-11-25T17:13:24.724Z,9.69
2022-11-25T17:15:51.689Z,9.69
2022-11-25T17:18:19.484Z,9.55
2022-11-25T17:20:46.910Z,9.74
2022-11-25T17:23:15.427Z,9.62
2022-11-25T17:25:48.789Z,9.46
2022-11-25T17:28:20.399Z,9.42
2022-11-25T17:30:48.306Z,9.45
2022-11-25T17:33:16.555Z,9.39
2022-11-25T17:35:43.608Z,9.45
2022-11-25T17:38:20.482Z,9.30
2022-11-25T17:40:47.380Z,9.35
2022-11-25T17:43:15.799Z,9.22
2022-11-25T17:45:43.458Z,9.36
2022-11-25T17:48:15.046Z,9.25
2022-11-25T17:50:42.178Z,9.32
2022-11-25T17:53:09.902Z,9.19
2022-11-25T17:55:37.235Z,9.31
2022-11-25T17:58:04.130Z,9.15
2022-11-25T18:00:32.801Z,8.98
2022-11-25T18:02:59.813Z,9.03
2022-11-25T18:05:27.085Z,9.13
2022-11-25T18:07:54.196Z,9.00
2022-11-25T18:10:23.378Z,9.13
2022-11-25T18:12:53.255Z,8.92
2022-11-25T18:15:39.188Z,9.09
2022-11-25T18:18:11.235Z,8.95
2022-11-25T18:20:38.047Z,9.16
2022-11-25T18:23:04.834Z,9.05
2022-11-25T18:25:33.266Z,9.08
2022-11-25T18:28:00.658Z,8.65
2022-11-25T18:30:29.002Z,8.78
2022-11-25T18:32:57.490Z,8.75
2022-11-25T18:35:27.830Z,8.79
2022-11-25T18:37:58.263Z,8.93
2022-11-25T18:40:26.075Z,8.94
2022-11-25T18:42:59.813Z,8.63
2022-11-25T18:45:46.854Z,8.57
2022-11-25T18:48:18.924Z,8.74
2022-11-25T18:50:46.507Z,8.72
2022-11-25T18:53:13.775Z,8.44
2022-11-25T18:55:45.784Z,8.61
2022-11-25T18:58:20.216Z,8.47
2022-11-25T19:00:51.050Z,8.47
2022-11-25T19:03:19.557Z,8.44
2022-11-25T19:05:47.811Z,8.60
2022-11-25T19:08:15.095Z,8.59
2022-11-25T19:10:43.613Z,8.71
2022-11-25T19:13:32.026Z,8.48
2022-11-25T19:16:09.570Z,8.57
2022-11-25T19:18:37.048Z,8.26
2022-11-25T19:21:03.929Z,8.11
2022-11-25T19:23:36.160Z,8.47
2022-11-25T19:26:07.816Z,8.57
2022-11-25T19:28:35.027Z,8.70
2022-11-25T19:31:04.836Z,8.27
2022-11-25T19:33:34.400Z,8.39
2022-11-25T19:36:01.689Z,8.28
2022-11-25T19:38:28.553Z,8.38
2022-11-25T19:40:56.423Z,8.18
2022-11-25T19:43:24.046Z,8.16
2022-11-25T19:45:51.033Z,8.16
2022-11-25T19:48:19.173Z,8.16
2022-11-25T19:50:46.996Z,8.17
2022-11-25T19:53:18.400Z,8.17
2022-11-25T19:55:45.421Z,8.10
2022-11-25T19:58:12.381Z,8.16
2022-11-25T20:00:39.776Z,8.21
2022-11-25T20:03:11.204Z,7.86
2022-11-25T20:05:38.346Z,7.81
2022-11-25T20:08:06.653Z,7.90
2022-11-25T20:10:34.074Z,7.86
2022-11-25T20:13:00.847Z,7.68
2022-11-25T20:15:27.668Z,7.89
2022-11-25T20:17:56.237Z,7.91
2022-11-25T20:20:25.109Z,7.86
2022-11-25T20:22:56.540Z,7.94
2022-11-25T20:25:23.927Z,7.81
2022-11-25T20:27:50.725Z,7.92
2022-11-25T20:30:22.714Z,7.92
2022-11-25T20:32:49.668Z,7.67
2022-11-25T20:35:16.483Z,7.82
2022-11-25T20:37:58.309Z,7.52
2022-11-25T20:40:26.755Z,7.58
2022-11-25T20:42:53.897Z,7.72
2022-11-25T20:45:21.762Z,7.81
2022-11-25T20:47:53.072Z,7.78
2022-11-25T20:50:31.617Z,7.34
2022-11-25T20:53:04.887Z,7.32
2022-11-25T20:55:35.936Z,7.23
2022-11-25T20:58:03.576Z,7.31
2022-11-25T21:00:31.213Z,7.28
2022-11-25T21:02:57.901Z,6.83
2022-11-25T21:05:26.709Z,7.42
2022-11-25T21:07:54.663Z,7.37
2022-11-25T21:10:24.053Z,7.30
2022-11-25T21:12:51.580Z,7.08
2022-11-25T21:15:21.146Z,7.13
2022-11-25T21:17:48.063Z,7.32
2022-11-25T21:20:15.104Z,7.17
2022-11-25T21:22:44.161Z,7.27
2022-11-25T21:25:12.637Z,7.24
2022-11-25T21:27:40.370Z,6.95
2022-11-25T21:30:07.803Z,7.09
2022-11-25T21:32:35.498Z,7.02
2022-11-25T21:35:04.267Z,7.28
2022-11-25T21:37:40.960Z,7.22
2022-11-25T21:40:32.178Z,7.17
2022-11-25T21:42:59.390Z,6.93
2022-11-25T21:45:26.346Z,6.93
2022-11-25T21:47:53.386Z,6.92
2022-11-25T21:50:20.537Z,7.20
2022-11-25T21:52:47.823Z,7.21
2022-11-25T21:55:15.387Z,7.24
2022-11-25T21:57:42.346Z,7.02
2022-11-25T22:00:20.603Z,7.04
2022-11-25T22:02:47.511Z,7.07
2022-11-25T22:05:15.945Z,7.10
2022-11-25T22:07:43.050Z,7.21
2022-11-25T22:10:10.367Z,7.26
2022-11-25T22:12:41.317Z,7.23
2022-11-25T22:15:29.011Z,7.16
2022-11-25T22:17:57.561Z,7.25
2022-11-25T22:20:30.634Z,7.15
2022-11-25T22:22:57.423Z,7.17
2022-11-25T22:25:25.797Z,7.13
2022-11-25T22:27:53.650Z,7.05
2022-11-25T22:30:21.852Z,6.92
2022-11-25T22:32:52.836Z,6.89
2022-11-25T22:35:20.951Z,7.01
2022-11-25T22:37:53.492Z,7.06
2022-11-25T22:40:22.518Z,7.19
2022-11-25T22:42:50.471Z,6.90
2022-11-25T22:45:24.658Z,7.01
2022-11-25T22:47:52.114Z,7.09
2022-11-25T22:50:22.072Z,7.05
2022-11-25T22:52:49.052Z,7.08
2022-11-25T22:55:17.523Z,6.99
2022-11-25T22:57:44.652Z,6.94
2022-11-25T23:00:12.933Z,6.77
2022-11-25T23:02:39.664Z,6.78
2022-11-25T23:05:13.499Z,6.54
2022-11-25T23:07:40.240Z,6.45
2022-11-25T23:10:13.756Z,6.62
2022-11-25T23:12:40.439Z,6.47
2022-11-25T23:15:07.274Z,6.43
2022-11-25T23:17:34.235Z,6.69
2022-11-25T23:20:02.380Z,6.32
2022-11-25T23:22:29.088Z,6.30
2022-11-25T23:24:55.848Z,6.50
2022-11-25T23:27:22.597Z,6.51
2022-11-25T23:29:49.442Z,6.43
2022-11-25T23:32:18.796Z,6.30
2022-11-25T23:34:46.194Z,6.34
2022-11-25T23:37:13.820Z,6.23
2022-11-25T23:39:42.149Z,6.44
2022-11-25T23:42:31.822Z,6.44
2022-11-25T23:44:59.837Z,6.54
2022-11-25T23:47:26.543Z,6.39
2022-11-25T23:49:55.741Z,6.29
2022-11-25T23:52:24.412Z,6.29
2022-11-25T23:54:52.588Z,6.37
2022-11-25T23:57:21.262Z,6.22
2022-11-25T23:59:48.446Z,6.17
